createdAt,value
2023-01-11T00:00:31.073Z,0.00
2023-01-11T00:01:31.044Z,0.00
2023-01-11T00:02:31.104Z,0.00
2023-01-11T00:03:31.003Z,0.00
2023-01-11T00:04:31.014Z,0.00
2023-01-11T00:05:30.979Z,0.00
2023-01-11T00:06:30.986Z,0.00
2023-01-11T00:07:30.963Z,0.00
2023-01-11T00:08:30.946Z,0.00
2023-01-11T00:09:30.952Z,0.00
2023-01-11T00:10:30.910Z,0.00
2023-01-11T00:11:30.891Z,0.00
2023-01-11T00:12:30.901Z,0.00
2023-01-11T00:13:30.904Z,0.00
2023-01-11T00:14:30.863Z,0.00
2023-01-11T00:15:30.846Z,0.00
2023-01-11T00:16:30.821Z,0.00
2023-01-11T00:17:30.833Z,0.00
2023-01-11T00:18:30.802Z,0.00
2023-01-11T00:19:30.794Z,0.00
2023-01-11T00:20:30.785Z,0.00
2023-01-11T00:21:30.753Z,0.00
2023-01-11T00:22:30.763Z,0.00
2023-01-11T00:23:30.940Z,0.00
2023-01-11T00:24:30.725Z,0.00
2023-01-11T00:25:30.736Z,0.00
2023-01-11T00:26:30.692Z,0.00
2023-01-11T00:27:30.702Z,0.00
2023-01-11T00:28:30.663Z,0.00
2023-01-11T00:29:30.654Z,0.00
2023-01-11T00:30:30.644Z,0.00
2023-01-11T00:31:30.639Z,0.00
2023-01-11T00:32:30.633Z,0.00
2023-01-11T00:33:30.597Z,0.00
2023-01-11T00:34:30.597Z,0.00
2023-01-11T00:35:30.584Z,0.00
2023-01-11T00:36:30.615Z,0.00
2023-01-11T00:37:30.555Z,0.00
2023-01-11T00:38:30.534Z,0.00
2023-01-11T00:39:30.527Z,0.00
2023-01-11T00:40:30.518Z,0.00
2023-01-11T00:41:30.503Z,0.00
2023-01-11T00:42:30.508Z,0.00
2023-01-11T00:43:30.464Z,0.00
2023-01-11T00:44:30.454Z,0.00
2023-01-11T00:45:30.442Z,0.00
2023-01-11T00:46:30.456Z,0.00
2023-01-11T00:47:30.424Z,0.00
2023-01-11T00:48:30.424Z,0.00
2023-01-11T00:49:30.373Z,0.00
2023-01-11T00:50:30.365Z,0.00
2023-01-11T00:51:30.359Z,0.00
2023-01-11T00:52:30.400Z,0.00
2023-01-11T00:53:30.326Z,0.00
2023-01-11T00:55:42.812Z,0.00
2023-01-11T00:56:40.087Z,0.00
2023-01-11T00:57:40.112Z,0.00
2023-01-11T00:58:40.066Z,0.00
2023-01-11T00:59:40.045Z,0.00
2023-01-11T01:00:40.045Z,0.00
2023-01-11T01:01:40.069Z,0.00
2023-01-11T01:02:40.100Z,0.00
2023-01-11T01:03:40.011Z,0.00
2023-01-11T01:04:39.979Z,0.00
2023-01-11T01:05:39.978Z,0.00
2023-01-11T01:06:39.999Z,0.00
2023-01-11T01:07:39.970Z,0.00
2023-01-11T01:08:39.928Z,0.00
2023-01-11T01:09:39.953Z,0.00
2023-01-11T01:10:39.907Z,0.00
2023-01-11T01:11:39.888Z,0.00
2023-01-11T01:12:39.917Z,0.00
2023-01-11T01:13:39.867Z,0.00
2023-01-11T01:14:39.857Z,0.00
2023-01-11T01:15:39.860Z,0.00
2023-01-11T01:16:39.819Z,0.00
2023-01-11T01:17:39.827Z,0.00
2023-01-11T01:18:39.816Z,0.00
2023-01-11T01:19:39.779Z,0.00
2023-01-11T01:20:39.771Z,0.00
2023-01-11T01:21:39.756Z,0.00
2023-01-11T01:22:39.758Z,0.00
2023-01-11T01:23:39.738Z,0.00
2023-01-11T01:24:39.738Z,0.00
2023-01-11T01:25:39.711Z,0.00
2023-01-11T01:26:39.686Z,0.00
2023-01-11T01:27:39.689Z,0.00
2023-01-11T01:28:39.662Z,0.00
2023-01-11T01:29:39.651Z,0.00
2023-01-11T01:30:39.631Z,0.00
2023-01-11T01:31:39.620Z,0.00
2023-01-11T01:32:39.639Z,0.00
2023-01-11T01:33:39.600Z,0.00
2023-01-11T01:34:39.579Z,0.00
2023-01-11T01:35:39.570Z,0.00
2023-01-11T01:36:39.562Z,0.00
2023-01-11T01:37:39.559Z,0.00
2023-01-11T01:38:39.525Z,0.00
2023-01-11T01:39:39.511Z,0.00
2023-01-11T01:40:39.490Z,0.00
2023-01-11T01:41:39.496Z,0.00
2023-01-11T01:42:39.495Z,0.00
2023-01-11T01:43:39.449Z,0.00
2023-01-11T01:44:39.450Z,0.00
2023-01-11T01:45:39.433Z,0.00
2023-01-11T01:46:39.450Z,0.00
2023-01-11T01:47:39.438Z,0.00
2023-01-11T01:48:39.381Z,0.00
2023-01-11T01:49:39.393Z,0.00
2023-01-11T01:50:39.363Z,0.00
2023-01-11T01:51:39.351Z,0.00
2023-01-11T01:52:39.360Z,0.00
2023-01-11T01:53:39.335Z,0.00
2023-01-11T01:54:39.313Z,0.00
2023-01-11T01:55:39.288Z,0.00
2023-01-11T01:56:39.271Z,0.00
2023-01-11T01:57:39.299Z,0.00
2023-01-11T01:58:39.252Z,0.00
2023-01-11T01:59:39.250Z,0.00
2023-01-11T02:00:39.232Z,0.00
2023-01-11T02:01:39.231Z,0.00
2023-01-11T02:02:39.332Z,0.00
2023-01-11T02:03:39.191Z,0.00
2023-01-11T02:04:39.170Z,0.00
2023-01-11T02:05:39.161Z,0.00
2023-01-11T02:06:39.214Z,0.00
2023-01-11T02:07:39.158Z,0.00
2023-01-11T02:08:39.140Z,0.00
2023-01-11T02:09:39.115Z,0.00
2023-01-11T02:10:39.097Z,0.00
2023-01-11T02:11:39.081Z,0.00
2023-01-11T02:12:39.103Z,0.00
2023-01-11T02:13:39.053Z,0.00
2023-01-11T02:14:39.035Z,0.00
2023-01-11T02:15:39.080Z,0.00
2023-01-11T02:16:39.013Z,0.00
2023-01-11T02:17:39.020Z,0.00
2023-01-11T02:18:38.986Z,0.00
2023-01-11T02:19:38.972Z,0.00
2023-01-11T02:20:38.984Z,0.00
2023-01-11T02:21:38.954Z,0.00
2023-01-11T02:22:38.949Z,0.00
2023-01-11T02:23:38.924Z,0.00
2023-01-11T02:24:38.896Z,0.00
2023-01-11T02:25:38.885Z,0.00
2023-01-11T02:26:38.877Z,0.00
2023-01-11T02:27:38.866Z,0.00
2023-01-11T02:28:38.885Z,0.00
2023-01-11T02:29:38.836Z,0.00
2023-01-11T02:30:38.814Z,0.00
2023-01-11T02:31:38.837Z,0.00
2023-01-11T02:32:38.817Z,0.00
2023-01-11T02:33:38.821Z,0.00
2023-01-11T02:34:38.770Z,0.00
2023-01-11T02:35:38.778Z,0.00
2023-01-11T02:36:38.758Z,0.00
2023-01-11T02:37:38.735Z,0.00
2023-01-11T02:38:38.734Z,0.00
2023-01-11T02:39:38.696Z,0.00
2023-01-11T02:40:38.681Z,0.00
2023-01-11T02:41:38.698Z,0.00
2023-01-11T02:42:38.677Z,0.00
2023-01-11T02:43:38.664Z,0.00
2023-01-11T02:44:38.627Z,0.00
2023-01-11T02:45:38.646Z,0.00
2023-01-11T02:46:38.623Z,0.00
2023-01-11T02:47:38.609Z,0.00
2023-01-11T02:48:43.417Z,0.00
2023-01-11T02:49:40.560Z,0.00
2023-01-11T02:50:38.551Z,0.00
2023-01-11T02:51:38.546Z,0.00
2023-01-11T02:52:38.528Z,0.00
2023-01-11T02:53:38.540Z,0.00
2023-01-11T02:54:38.495Z,0.00
2023-01-11T02:55:38.499Z,0.00
2023-01-11T02:56:38.554Z,0.00
2023-01-11T02:57:38.480Z,0.00
2023-01-11T02:58:38.458Z,0.00
2023-01-11T02:59:38.438Z,0.00
2023-01-11T03:00:38.428Z,0.00
2023-01-11T03:01:38.435Z,0.00
2023-01-11T03:02:38.457Z,0.00
2023-01-11T03:03:38.407Z,0.00
2023-01-11T03:04:38.359Z,0.00
2023-01-11T03:05:38.356Z,0.00
2023-01-11T03:06:38.396Z,0.00
2023-01-11T03:07:38.316Z,0.00
2023-01-11T03:08:38.319Z,0.00
2023-01-11T03:09:38.310Z,0.00
2023-01-11T03:10:38.298Z,0.00
2023-01-11T03:11:38.268Z,0.00
2023-01-11T03:12:38.249Z,0.00
2023-01-11T03:13:38.258Z,0.00
2023-01-11T03:14:38.235Z,0.00
2023-01-11T03:15:38.220Z,0.00
2023-01-11T03:16:38.200Z,0.00
2023-01-11T03:17:38.189Z,0.00
2023-01-11T03:18:38.200Z,0.00
2023-01-11T03:19:38.171Z,0.00
2023-01-11T03:20:38.148Z,0.00
2023-01-11T03:21:38.138Z,0.00
2023-01-11T03:22:38.118Z,0.00
2023-01-11T03:23:38.121Z,0.00
2023-01-11T03:24:38.095Z,0.00
2023-01-11T03:25:38.084Z,0.00
2023-01-11T03:26:38.080Z,0.00
2023-01-11T03:27:38.052Z,0.00
2023-01-11T03:28:38.050Z,0.00
2023-01-11T03:29:38.033Z,0.00
2023-01-11T03:30:38.011Z,0.00
2023-01-11T03:31:38.054Z,0.00
2023-01-11T03:32:37.982Z,0.00
2023-01-11T03:33:38.002Z,0.00
2023-01-11T03:34:37.962Z,0.00
2023-01-11T03:35:37.949Z,0.00
2023-01-11T03:36:37.938Z,0.00
2023-01-11T03:37:37.926Z,0.00
2023-01-11T03:38:37.924Z,0.00
2023-01-11T03:39:37.913Z,0.00
2023-01-11T03:40:37.872Z,0.00
2023-01-11T03:41:37.882Z,0.00
2023-01-11T03:42:37.863Z,0.00
2023-01-11T03:43:37.865Z,0.00
2023-01-11T03:44:37.822Z,0.00
2023-01-11T03:45:37.816Z,0.00
2023-01-11T03:46:37.824Z,0.00
2023-01-11T03:47:37.782Z,0.00
2023-01-11T03:48:37.781Z,0.00
2023-01-11T03:49:37.771Z,0.00
2023-01-11T03:50:37.766Z,0.00
2023-01-11T03:51:37.735Z,0.00
2023-01-11T03:52:37.712Z,0.00
2023-01-11T03:53:37.728Z,0.00
2023-01-11T03:54:37.684Z,0.00
2023-01-11T03:55:37.686Z,0.00
2023-01-11T03:56:37.684Z,0.00
2023-01-11T03:57:37.667Z,0.00
2023-01-11T03:58:37.647Z,0.00
2023-01-11T03:59:37.624Z,0.00
2023-01-11T04:00:37.636Z,0.00
2023-01-11T04:01:37.601Z,0.00
2023-01-11T04:02:37.575Z,0.00
2023-01-11T04:03:37.596Z,0.00
2023-01-11T04:04:37.585Z,0.00
2023-01-11T04:05:37.545Z,0.00
2023-01-11T04:06:37.613Z,0.00
2023-01-11T04:07:37.520Z,0.00
2023-01-11T04:08:37.519Z,0.00
2023-01-11T04:09:38.285Z,0.00
2023-01-11T04:10:37.466Z,0.00
2023-01-11T04:11:37.467Z,0.00
2023-01-11T04:12:37.447Z,0.00
2023-01-11T04:13:37.456Z,0.00
2023-01-11T04:14:37.433Z,0.00
2023-01-11T04:15:37.403Z,0.00
2023-01-11T04:16:37.400Z,0.00
2023-01-11T04:17:37.383Z,0.00
2023-01-11T04:18:37.382Z,0.00
2023-01-11T04:19:37.355Z,0.00
2023-01-11T04:20:37.339Z,0.00
2023-01-11T04:21:37.326Z,0.00
2023-01-11T04:22:37.316Z,0.00
2023-01-11T04:23:37.328Z,0.00
2023-01-11T04:24:37.288Z,0.00
2023-01-11T04:25:37.276Z,0.00
2023-01-11T04:26:37.268Z,0.00
2023-01-11T04:27:37.248Z,0.00
2023-01-11T04:28:37.248Z,0.00
2023-01-11T04:29:37.229Z,0.00
2023-01-11T04:30:37.226Z,0.00
2023-01-11T04:31:37.287Z,0.00
2023-01-11T04:32:37.182Z,0.00
2023-01-11T04:33:37.213Z,0.00
2023-01-11T04:34:37.155Z,0.00
2023-01-11T04:35:37.138Z,0.00
2023-01-11T04:36:37.127Z,0.00
2023-01-11T04:37:37.115Z,0.00
2023-01-11T04:38:37.118Z,0.00
2023-01-11T04:39:37.114Z,0.00
2023-01-11T04:40:37.081Z,0.00
2023-01-11T04:41:37.070Z,0.00
2023-01-11T04:42:37.049Z,0.00
2023-01-11T04:43:37.040Z,0.00
2023-01-11T04:44:37.052Z,0.00
2023-01-11T04:45:37.023Z,0.00
2023-01-11T04:46:37.044Z,0.00
2023-01-11T04:47:37.000Z,0.00
2023-01-11T04:48:36.967Z,0.00
2023-01-11T04:49:36.974Z,0.00
2023-01-11T04:50:37.046Z,0.00
2023-01-11T04:51:36.951Z,0.00
2023-01-11T04:52:36.919Z,0.00
2023-01-11T04:53:36.901Z,0.00
2023-01-11T04:54:36.911Z,0.00
2023-01-11T04:55:36.879Z,0.00
2023-01-11T04:56:36.860Z,0.00
2023-01-11T04:57:36.865Z,0.00
2023-01-11T04:58:38.183Z,0.00
2023-01-11T04:59:36.831Z,0.00
2023-01-11T05:00:36.838Z,0.00
2023-01-11T05:01:36.792Z,0.00
2023-01-11T05:02:36.790Z,0.00
2023-01-11T05:03:36.763Z,0.00
2023-01-11T05:04:36.808Z,0.00
2023-01-11T05:05:36.733Z,0.00
2023-01-11T05:06:36.777Z,0.00
2023-01-11T05:07:36.737Z,0.00
2023-01-11T05:08:36.709Z,0.00
2023-01-11T05:09:36.711Z,0.00
2023-01-11T05:10:36.675Z,0.00
2023-01-11T05:11:36.652Z,0.00
2023-01-11T05:12:36.665Z,0.00
2023-01-11T05:13:36.634Z,0.00
2023-01-11T05:14:36.662Z,0.00
2023-01-11T05:15:36.613Z,0.00
2023-01-11T05:16:36.612Z,0.00
2023-01-11T05:17:36.573Z,0.00
2023-01-11T05:18:36.573Z,0.00
2023-01-11T05:19:36.552Z,0.00
2023-01-11T05:20:36.553Z,0.00
2023-01-11T05:21:36.534Z,0.00
2023-01-11T05:22:36.530Z,0.00
2023-01-11T05:23:36.494Z,0.00
2023-01-11T05:24:36.513Z,0.00
2023-01-11T05:25:36.480Z,0.00
2023-01-11T05:26:36.455Z,0.00
2023-01-11T05:27:36.443Z,0.00
2023-01-11T05:28:36.441Z,0.00
2023-01-11T05:29:36.433Z,0.00
2023-01-11T05:30:36.437Z,0.00
2023-01-11T05:31:36.417Z,0.00
2023-01-11T05:32:36.376Z,0.00
2023-01-11T05:33:36.365Z,0.00
2023-01-11T05:34:36.386Z,0.00
2023-01-11T05:35:36.326Z,0.00
2023-01-11T05:36:36.323Z,0.00
2023-01-11T05:37:36.305Z,0.00
2023-01-11T05:38:36.297Z,0.00
2023-01-11T05:39:36.303Z,0.00
2023-01-11T05:40:36.264Z,0.00
2023-01-11T05:41:36.273Z,0.00
2023-01-11T05:42:36.234Z,0.00
2023-01-11T05:43:36.234Z,0.00
2023-01-11T05:44:36.246Z,0.00
2023-01-11T05:45:36.245Z,0.00
2023-01-11T05:46:36.189Z,0.00
2023-01-11T05:47:36.167Z,0.00
2023-01-11T05:48:36.156Z,0.00
2023-01-11T05:49:36.196Z,0.00
2023-01-11T05:50:36.128Z,0.00
2023-01-11T05:51:36.122Z,0.00
2023-01-11T05:52:36.107Z,0.00
2023-01-11T05:53:36.086Z,0.00
2023-01-11T05:54:36.106Z,0.00
2023-01-11T05:55:36.056Z,0.00
2023-01-11T05:56:36.047Z,0.00
2023-01-11T05:57:36.027Z,0.00
2023-01-11T05:58:36.028Z,0.00
2023-01-11T05:59:36.024Z,0.00
2023-01-11T06:00:35.991Z,0.00
2023-01-11T06:01:35.984Z,0.00
2023-01-11T06:02:36.054Z,0.00
2023-01-11T06:03:35.956Z,0.00
2023-01-11T06:04:35.984Z,0.00
2023-01-11T06:05:35.922Z,0.00
2023-01-11T06:06:35.998Z,0.00
2023-01-11T06:07:35.895Z,0.00
2023-01-11T06:08:35.889Z,0.00
2023-01-11T06:09:35.882Z,0.00
2023-01-11T06:10:35.866Z,0.00
2023-01-11T06:11:35.861Z,0.00
2023-01-11T06:12:35.829Z,0.00
2023-01-11T06:13:35.814Z,0.00
2023-01-11T06:14:38.042Z,0.00
2023-01-11T06:15:35.799Z,0.00
2023-01-11T06:16:35.793Z,0.00
2023-01-11T06:17:35.753Z,0.00
2023-01-11T06:18:35.753Z,0.00
2023-01-11T06:19:35.764Z,0.00
2023-01-11T06:20:35.728Z,0.00
2023-01-11T06:21:35.709Z,0.00
2023-01-11T06:22:35.690Z,0.00
2023-01-11T06:23:35.703Z,0.00
2023-01-11T06:24:35.895Z,0.00
2023-01-11T06:25:35.659Z,0.00
2023-01-11T06:26:35.655Z,0.00
2023-01-11T06:27:35.619Z,0.00
2023-01-11T06:28:35.608Z,0.00
2023-01-11T06:29:35.619Z,0.00
2023-01-11T06:30:35.695Z,0.00
2023-01-11T06:31:35.572Z,0.00
2023-01-11T06:32:35.572Z,0.00
2023-01-11T06:33:35.546Z,0.00
2023-01-11T06:34:35.549Z,0.00
2023-01-11T06:35:35.511Z,0.00
2023-01-11T06:36:35.501Z,0.00
2023-01-11T06:37:35.484Z,0.00
2023-01-11T06:38:35.504Z,0.00
2023-01-11T06:39:35.497Z,0.00
2023-01-11T06:40:35.452Z,0.00
2023-01-11T06:41:35.425Z,0.00
2023-01-11T06:42:35.422Z,0.00
2023-01-11T06:43:35.403Z,0.00
2023-01-11T06:44:35.412Z,0.00
2023-01-11T06:45:35.380Z,0.00
2023-01-11T06:46:35.401Z,0.00
2023-01-11T06:47:35.357Z,0.00
2023-01-11T06:48:35.342Z,0.00
2023-01-11T06:49:35.341Z,0.00
2023-01-11T06:50:35.314Z,0.00
2023-01-11T06:51:35.296Z,0.00
2023-01-11T06:52:35.284Z,0.00
2023-01-11T06:53:35.271Z,0.00
2023-01-11T06:54:35.279Z,0.00
2023-01-11T06:55:42.288Z,0.00
2023-01-11T06:56:35.235Z,0.00
2023-01-11T06:57:35.226Z,0.00
2023-01-11T06:58:35.213Z,0.00
2023-01-11T06:59:35.197Z,0.00
2023-01-11T07:00:35.174Z,0.00
2023-01-11T07:01:35.195Z,0.00
2023-01-11T07:02:35.160Z,0.00
2023-01-11T07:03:35.133Z,0.00
2023-01-11T07:04:35.138Z,0.00
2023-01-11T07:05:35.122Z,0.00
2023-01-11T07:06:35.088Z,0.00
2023-01-11T07:07:35.081Z,0.00
2023-01-11T07:08:35.076Z,0.00
2023-01-11T07:09:35.069Z,0.00
2023-01-11T07:10:35.052Z,0.00
2023-01-11T07:11:35.015Z,0.00
2023-01-11T07:12:35.037Z,0.00
2023-01-11T07:13:35.010Z,0.00
2023-01-11T07:14:35.109Z,0.00
2023-01-11T07:15:35.059Z,0.00
2023-01-11T07:16:34.960Z,0.00
2023-01-11T07:17:34.930Z,0.00
2023-01-11T07:18:34.928Z,0.00
2023-01-11T07:19:34.925Z,0.00
2023-01-11T07:20:34.909Z,0.00
2023-01-11T07:21:34.888Z,0.00
2023-01-11T07:22:34.869Z,0.00
2023-01-11T07:23:34.865Z,0.00
2023-01-11T07:24:34.991Z,0.00
2023-01-11T07:25:34.831Z,0.00
2023-01-11T07:26:34.823Z,0.00
2023-01-11T07:27:34.828Z,0.00
2023-01-11T07:28:34.817Z,0.00
2023-01-11T07:29:34.792Z,0.00
2023-01-11T07:30:47.897Z,0.00
2023-01-11T07:31:35.786Z,0.00
2023-01-11T07:32:34.741Z,0.00
2023-01-11T07:33:34.726Z,0.00
2023-01-11T07:34:34.809Z,0.00
2023-01-11T07:35:34.696Z,0.00
2023-01-11T07:36:34.691Z,0.00
2023-01-11T07:37:34.675Z,0.00
2023-01-11T07:38:34.654Z,0.00
2023-01-11T07:39:43.372Z,0.00
2023-01-11T07:40:35.635Z,0.00
2023-01-11T07:41:34.615Z,0.00
2023-01-11T07:42:34.599Z,0.00
2023-01-11T07:43:34.591Z,0.00
2023-01-11T07:44:34.595Z,0.00
2023-01-11T07:45:45.268Z,0.00
2023-01-11T07:46:35.684Z,0.00
2023-01-11T07:47:34.526Z,0.00
2023-01-11T07:48:34.520Z,0.00
2023-01-11T07:49:34.530Z,0.00
2023-01-11T07:50:34.494Z,0.00
2023-01-11T07:51:34.474Z,0.00
2023-01-11T07:52:34.472Z,0.00
2023-01-11T07:53:34.445Z,0.00
2023-01-11T07:54:34.548Z,0.00
2023-01-11T07:55:34.429Z,0.00
2023-01-11T07:56:34.417Z,0.00
2023-01-11T07:57:34.424Z,0.00
2023-01-11T07:58:34.427Z,0.00
2023-01-11T07:59:34.368Z,0.00
2023-01-11T08:00:34.373Z,0.00
2023-01-11T08:01:34.336Z,0.00
2023-01-11T08:02:34.456Z,0.00
2023-01-11T08:03:34.407Z,0.00
2023-01-11T08:04:34.369Z,0.00
2023-01-11T08:05:34.297Z,0.00
2023-01-11T08:06:34.277Z,0.00
2023-01-11T08:07:34.270Z,0.00
2023-01-11T08:08:34.248Z,5.62
2023-01-11T08:09:34.228Z,5.62
2023-01-11T08:10:34.268Z,5.62
2023-01-11T08:11:34.385Z,5.62
2023-01-11T08:12:34.208Z,5.62
2023-01-11T08:13:34.192Z,5.62
2023-01-11T08:14:34.236Z,0.00
2023-01-11T08:15:34.178Z,0.00
2023-01-11T08:16:34.142Z,0.00
2023-01-11T08:17:34.129Z,0.00
2023-01-11T08:18:34.130Z,0.00
2023-01-11T08:19:34.107Z,0.00
2023-01-11T08:20:34.101Z,0.00
2023-01-11T08:21:34.070Z,0.00
2023-01-11T08:22:34.082Z,0.00
2023-01-11T08:23:34.050Z,0.00
2023-01-11T08:24:34.068Z,0.00
2023-01-11T08:25:34.035Z,0.00
2023-01-11T08:26:34.013Z,0.00
2023-01-11T08:27:33.991Z,0.00
2023-01-11T08:28:33.979Z,0.00
2023-01-11T08:29:33.960Z,0.00
2023-01-11T08:30:33.964Z,0.00
2023-01-11T08:31:33.938Z,0.00
2023-01-11T08:32:33.922Z,0.00
2023-01-11T08:33:33.913Z,0.00
2023-01-11T08:34:34.622Z,0.00
2023-01-11T08:35:33.899Z,0.00
2023-01-11T08:36:33.864Z,0.00
2023-01-11T08:37:33.858Z,0.00
2023-01-11T08:38:33.862Z,0.00
2023-01-11T08:39:33.840Z,0.00
2023-01-11T08:40:33.841Z,5.62
2023-01-11T08:41:33.829Z,5.62
2023-01-11T08:42:33.804Z,5.62
2023-01-11T08:43:33.800Z,5.62
2023-01-11T08:44:34.682Z,5.62
2023-01-11T08:45:33.779Z,5.62
2023-01-11T08:46:33.832Z,5.62
2023-01-11T08:47:33.753Z,5.62
2023-01-11T08:48:33.735Z,5.62
2023-01-11T08:49:33.713Z,5.62
2023-01-11T08:50:33.706Z,11.25
2023-01-11T08:51:33.687Z,11.25
2023-01-11T08:52:33.658Z,11.25
2023-01-11T08:53:33.644Z,11.25
2023-01-11T08:54:33.655Z,11.25
2023-01-11T08:55:33.636Z,11.25
2023-01-11T08:56:33.616Z,5.62
2023-01-11T08:57:33.609Z,5.62
2023-01-11T08:58:33.575Z,5.62
2023-01-11T08:59:33.588Z,5.62
2023-01-11T09:00:33.564Z,11.25
2023-01-11T09:01:33.652Z,16.88
2023-01-11T09:02:33.547Z,16.88
2023-01-11T09:03:33.531Z,16.88
2023-01-11T09:04:33.506Z,16.88
2023-01-11T09:05:33.491Z,11.25
2023-01-11T09:06:33.460Z,11.25
2023-01-11T09:07:33.482Z,5.62
2023-01-11T09:08:33.442Z,5.62
2023-01-11T09:09:33.438Z,5.62
2023-01-11T09:10:33.424Z,5.62
2023-01-11T09:11:33.397Z,5.62
2023-01-11T09:12:33.390Z,11.25
2023-01-11T09:13:33.366Z,11.25
2023-01-11T09:14:33.403Z,11.25
2023-01-11T09:15:33.408Z,11.25
2023-01-11T09:16:33.359Z,11.25
2023-01-11T09:17:33.348Z,11.25
2023-01-11T09:18:33.317Z,5.62
2023-01-11T09:19:33.307Z,5.62
2023-01-11T09:20:33.320Z,11.25
2023-01-11T09:21:33.279Z,11.25
2023-01-11T09:22:33.239Z,11.25
2023-01-11T09:23:33.241Z,11.25
2023-01-11T09:24:33.220Z,16.88
2023-01-11T09:25:33.220Z,11.25
2023-01-11T09:26:33.215Z,11.25
2023-01-11T09:27:33.208Z,11.25
2023-01-11T09:28:33.162Z,11.25
2023-01-11T09:29:35.493Z,11.25
2023-01-11T09:30:33.155Z,16.88
2023-01-11T09:31:33.159Z,16.88
2023-01-11T09:32:33.111Z,16.88
2023-01-11T09:33:33.092Z,11.25
2023-01-11T09:34:33.124Z,11.25
2023-01-11T09:35:33.091Z,5.62
2023-01-11T09:36:33.100Z,11.25
2023-01-11T09:37:33.072Z,22.50
2023-01-11T09:38:33.037Z,22.50
2023-01-11T09:39:33.016Z,22.50
2023-01-11T09:40:33.001Z,22.50
2023-01-11T09:41:33.016Z,22.50
2023-01-11T09:42:32.960Z,22.50
2023-01-11T09:43:32.969Z,22.50
2023-01-11T09:44:33.025Z,28.12
2023-01-11T09:45:32.960Z,22.50
2023-01-11T09:46:32.970Z,22.50
2023-01-11T09:47:32.932Z,22.50
2023-01-11T09:48:32.893Z,28.12
2023-01-11T09:49:32.874Z,28.12
2023-01-11T09:50:32.865Z,28.12
2023-01-11T09:51:32.853Z,28.12
2023-01-11T09:52:32.841Z,28.12
2023-01-11T09:53:32.823Z,22.50
2023-01-11T09:54:32.833Z,22.50
2023-01-11T09:55:32.833Z,22.50
2023-01-11T09:56:32.836Z,28.12
2023-01-11T09:57:32.796Z,28.12
2023-01-11T09:58:32.761Z,22.50
2023-01-11T09:59:32.743Z,22.50
2023-01-11T10:00:32.769Z,22.50
2023-01-11T10:01:32.736Z,28.12
2023-01-11T10:02:32.695Z,28.12
2023-01-11T10:03:32.733Z,33.75
2023-01-11T10:04:32.767Z,33.75
2023-01-11T10:05:32.689Z,39.38
2023-01-11T10:06:32.644Z,39.38
2023-01-11T10:07:32.644Z,39.38
2023-01-11T10:18:25.387Z,50.62
2023-01-11T10:18:25.680Z,45.00
2023-01-11T10:18:32.626Z,39.38
2023-01-11T10:18:40.979Z,45.00
2023-01-11T10:19:39.798Z,39.38
2023-01-11T10:20:33.483Z,33.75
2023-01-11T10:21:32.447Z,33.75
2023-01-11T10:22:32.464Z,39.38
2023-01-11T10:23:32.457Z,56.25
2023-01-11T10:24:32.410Z,56.25
2023-01-11T10:25:32.400Z,39.38
2023-01-11T10:26:32.416Z,33.75
2023-01-11T10:27:32.411Z,39.38
2023-01-11T10:28:32.372Z,39.38
2023-01-11T10:29:32.340Z,56.25
2023-01-11T10:30:32.352Z,73.12
2023-01-11T10:31:32.367Z,84.38
2023-01-11T10:32:32.294Z,56.25
2023-01-11T10:33:32.282Z,50.62
2023-01-11T10:34:32.274Z,39.38
2023-01-11T10:35:32.273Z,33.75
2023-01-11T10:36:32.249Z,67.50
2023-01-11T10:37:32.255Z,90.00
2023-01-11T10:38:32.209Z,90.00
2023-01-11T10:39:32.232Z,90.00
2023-01-11T10:40:32.191Z,78.75
2023-01-11T10:41:32.205Z,84.38
2023-01-11T10:42:32.140Z,78.75
2023-01-11T10:43:32.170Z,84.38
2023-01-11T10:44:32.127Z,73.12
2023-01-11T10:45:32.146Z,78.75
2023-01-11T10:46:32.126Z,106.88
2023-01-11T10:47:32.117Z,112.50
2023-01-11T10:48:32.070Z,118.12
2023-01-11T10:49:33.757Z,123.75
2023-01-11T10:50:32.039Z,157.50
2023-01-11T10:51:32.088Z,146.25
2023-01-11T10:52:32.015Z,168.75
2023-01-11T10:53:32.010Z,123.75
2023-01-11T10:54:32.028Z,123.75
2023-01-11T10:56:31.981Z,101.25
2023-01-11T10:57:31.968Z,78.75
2023-01-11T10:58:31.931Z,61.88
2023-01-11T10:59:31.932Z,67.50
2023-01-11T11:00:31.963Z,78.75
2023-01-11T11:01:31.922Z,118.12
2023-01-11T11:02:31.933Z,151.88
2023-01-11T11:03:31.887Z,146.25
2023-01-11T11:04:31.876Z,163.12
2023-01-11T11:05:31.841Z,135.00
2023-01-11T11:06:31.850Z,129.38
2023-01-11T11:07:31.812Z,163.12
2023-01-11T11:08:31.792Z,168.75
2023-01-11T11:09:31.802Z,174.38
2023-01-11T11:10:31.776Z,230.62
2023-01-11T11:11:31.790Z,264.38
2023-01-11T11:12:31.748Z,168.75
2023-01-11T11:13:31.735Z,208.12
2023-01-11T11:14:31.746Z,241.88
2023-01-11T11:15:31.708Z,196.88
2023-01-11T11:16:31.767Z,213.75
2023-01-11T11:17:31.681Z,168.75
2023-01-11T11:18:31.661Z,151.88
2023-01-11T11:19:31.670Z,135.00
2023-01-11T11:20:31.637Z,146.25
2023-01-11T11:21:31.674Z,151.88
2023-01-11T11:22:31.625Z,146.25
2023-01-11T11:23:31.622Z,157.50
2023-01-11T11:24:31.592Z,213.75
2023-01-11T11:25:31.565Z,174.38
2023-01-11T11:26:31.596Z,191.25
2023-01-11T11:27:31.544Z,129.38
2023-01-11T11:28:31.553Z,123.75
2023-01-11T11:29:31.531Z,129.38
2023-01-11T11:30:31.511Z,129.38
2023-01-11T11:31:31.546Z,135.00
2023-01-11T11:32:31.477Z,112.50
2023-01-11T11:33:31.470Z,118.12
2023-01-11T11:34:31.447Z,118.12
2023-01-11T11:35:31.460Z,123.75
2023-01-11T11:36:31.434Z,84.38
2023-01-11T11:37:31.396Z,101.25
2023-01-11T11:38:31.394Z,123.75
2023-01-11T11:39:31.398Z,112.50
2023-01-11T11:40:31.364Z,101.25
2023-01-11T11:41:31.371Z,101.25
2023-01-11T11:42:31.355Z,135.00
2023-01-11T11:43:31.327Z,129.38
2023-01-11T11:44:31.311Z,101.25
2023-01-11T11:45:31.368Z,140.62
2023-01-11T11:46:31.353Z,95.62
2023-01-11T11:47:31.266Z,118.12
2023-01-11T11:48:31.293Z,95.62
2023-01-11T11:49:31.237Z,90.00
2023-01-11T11:50:44.141Z,73.12
2023-01-11T11:51:32.237Z,73.12
2023-01-11T11:52:31.202Z,84.38
2023-01-11T11:53:31.178Z,174.38
2023-01-11T11:54:31.178Z,208.12
2023-01-11T11:55:31.173Z,247.50
2023-01-11T11:56:31.167Z,225.00
2023-01-11T11:57:31.138Z,219.38
2023-01-11T11:58:31.117Z,185.62
2023-01-11T11:59:31.114Z,135.00
2023-01-11T12:00:31.083Z,140.62
2023-01-11T12:01:31.100Z,151.88
2023-01-11T12:02:31.174Z,123.75
2023-01-11T12:03:31.052Z,129.38
2023-01-11T12:04:31.042Z,118.12
2023-01-11T12:05:31.010Z,118.12
2023-01-11T12:06:31.015Z,112.50
2023-01-11T12:07:31.028Z,101.25
2023-01-11T12:08:30.998Z,106.88
2023-01-11T12:09:31.012Z,101.25
2023-01-11T12:10:30.969Z,112.50
2023-01-11T12:11:30.940Z,112.50
2023-01-11T12:12:30.912Z,112.50
2023-01-11T12:13:30.909Z,118.12
2023-01-11T12:14:30.928Z,118.12
2023-01-11T12:15:30.897Z,112.50
2023-01-11T12:16:30.909Z,112.50
2023-01-11T12:17:30.852Z,106.88
2023-01-11T12:18:30.841Z,106.88
2023-01-11T12:19:30.810Z,106.88
2023-01-11T12:20:30.830Z,106.88
2023-01-11T12:21:30.828Z,106.88
2023-01-11T12:22:30.789Z,106.88
2023-01-11T12:23:30.766Z,106.88
2023-01-11T12:24:30.755Z,106.88
2023-01-11T12:25:30.730Z,106.88
2023-01-11T12:26:30.743Z,106.88
2023-01-11T12:27:30.708Z,106.88
2023-01-11T12:28:30.716Z,106.88
2023-01-11T12:29:30.682Z,106.88
2023-01-11T12:30:30.719Z,106.88
2023-01-11T12:31:30.675Z,106.88
2023-01-11T12:32:30.651Z,101.25
2023-01-11T12:33:30.624Z,101.25
2023-01-11T12:34:30.639Z,101.25
2023-01-11T12:35:30.624Z,101.25
2023-01-11T12:36:30.594Z,101.25
2023-01-11T12:37:30.571Z,101.25
2023-01-11T12:38:30.556Z,101.25
2023-01-11T12:39:30.534Z,101.25
2023-01-11T12:40:30.563Z,101.25
2023-01-11T12:41:30.526Z,101.25
2023-01-11T12:42:30.513Z,95.62
2023-01-11T12:43:30.519Z,95.62
2023-01-11T12:44:30.473Z,95.62
2023-01-11T12:45:30.467Z,95.62
2023-01-11T12:46:30.528Z,95.62
2023-01-11T12:47:30.451Z,95.62
2023-01-11T12:48:30.424Z,95.62
2023-01-11T12:49:30.406Z,95.62
2023-01-11T12:50:30.397Z,95.62
2023-01-11T12:51:30.409Z,95.62
2023-01-11T12:52:30.372Z,95.62
2023-01-11T12:53:30.357Z,90.00
2023-01-11T12:54:30.348Z,90.00
2023-01-11T12:56:27.849Z,95.62
2023-01-11T12:57:27.768Z,90.00
2023-01-11T12:58:27.562Z,106.88
2023-01-11T12:59:27.543Z,118.12
2023-01-11T13:00:27.549Z,123.75
2023-01-11T13:01:27.599Z,146.25
2023-01-11T13:02:27.560Z,118.12
2023-01-11T13:03:27.492Z,129.38
2023-01-11T13:04:27.490Z,129.38
2023-01-11T13:05:27.461Z,123.75
2023-01-11T13:06:28.834Z,112.50
2023-01-11T13:07:27.444Z,112.50
2023-01-11T13:08:27.433Z,112.50
2023-01-11T13:09:27.411Z,129.38
2023-01-11T13:10:27.409Z,168.75
2023-01-11T13:11:27.410Z,106.88
2023-01-11T13:12:27.363Z,112.50
2023-01-11T13:13:27.352Z,118.12
2023-01-11T13:14:27.342Z,95.62
2023-01-11T13:15:27.326Z,101.25
2023-01-11T13:16:27.319Z,101.25